createdAt,value
2019-05-12T00:02:03.974Z,99.90
2019-05-12T00:04:34.198Z,99.90
2019-05-12T00:07:08.695Z,99.90
2019-05-12T00:09:40.541Z,99.90
2019-05-12T00:12:11.217Z,99.90
2019-05-12T00:14:41.447Z,99.90
2019-05-12T00:17:11.673Z,99.90
2019-05-12T00:19:41.888Z,99.90
2019-05-12T00:22:13.787Z,99.90
2019-05-12T00:24:43.993Z,99.90
2019-05-12T00:27:17.831Z,99.90
2019-05-12T00:29:48.567Z,99.90
2019-05-12T00:32:19.254Z,99.90
2019-05-12T00:34:49.521Z,99.90
2019-05-12T00:37:19.782Z,99.90
2019-05-12T00:39:50.002Z,99.90
2019-05-12T00:42:20.245Z,99.90
2019-05-12T00:44:50.453Z,99.90
2019-05-12T00:47:20.671Z,99.90
2019-05-12T00:49:50.906Z,99.90
2019-05-12T00:52:21.311Z,99.90
2019-05-12T00:54:51.603Z,99.90
2019-05-12T00:57:21.817Z,99.90
2019-05-12T00:59:52.031Z,99.90
2019-05-12T01:02:22.274Z,99.90
2019-05-12T01:04:52.458Z,99.90
2019-05-12T01:07:22.675Z,99.90
2019-05-12T01:09:52.875Z,99.90
2019-05-12T01:12:23.169Z,99.90
2019-05-12T01:14:53.393Z,99.90
2019-05-12T01:17:23.625Z,99.90
2019-05-12T01:19:54.087Z,99.90
2019-05-12T01:22:24.321Z,99.90
2019-05-12T01:24:57.710Z,99.90
2019-05-12T01:27:28.753Z,99.90
2019-05-12T01:29:59.067Z,99.90
2019-05-12T01:32:38.254Z,99.90
2019-05-12T01:35:10.285Z,99.90
2019-05-12T01:37:40.513Z,99.90
2019-05-12T01:40:11.343Z,99.90
2019-05-12T01:42:41.582Z,99.90
2019-05-12T01:45:13.443Z,99.90
2019-05-12T01:47:43.659Z,99.90
2019-05-12T01:50:14.241Z,99.90
2019-05-12T01:52:44.461Z,99.90
2019-05-12T01:55:14.797Z,99.90
2019-05-12T01:57:45.015Z,99.90
2019-05-12T02:00:18.165Z,99.90
2019-05-12T02:02:48.212Z,99.90
2019-05-12T02:05:18.524Z,99.90
2019-05-12T02:07:50.392Z,99.90
2019-05-12T02:10:21.513Z,99.90
2019-05-12T02:12:51.836Z,99.90
2019-05-12T02:15:22.848Z,99.90
2019-05-12T02:17:53.093Z,99.90
2019-05-12T02:20:38.228Z,99.90
2019-05-12T02:23:09.294Z,99.90
2019-05-12T02:25:39.680Z,99.90
2019-05-12T02:28:09.909Z,99.90
2019-05-12T02:30:41.810Z,99.90
2019-05-12T02:33:15.655Z,99.90
2019-05-12T02:35:44.505Z,99.80
2019-05-12T02:38:14.843Z,99.90
2019-05-12T02:40:45.052Z,99.50
2019-05-12T02:43:15.645Z,99.10
2019-05-12T02:45:46.044Z,98.80
2019-05-12T02:48:16.266Z,99.20
2019-05-12T02:50:46.724Z,99.60
2019-05-12T02:53:17.041Z,99.80
2019-05-12T02:55:49.276Z,98.20
2019-05-12T02:58:25.412Z,98.60
2019-05-12T03:00:55.887Z,98.10
2019-05-12T03:03:29.527Z,97.50
2019-05-12T03:06:01.100Z,96.80
2019-05-12T03:08:34.907Z,97.30
2019-05-12T03:11:06.489Z,97.70
2019-05-12T03:13:36.838Z,97.90
2019-05-12T03:16:07.015Z,97.40
2019-05-12T03:18:37.321Z,96.80
2019-05-12T03:21:07.532Z,96.20
2019-05-12T03:23:37.769Z,96.90
2019-05-12T03:26:08.035Z,95.40
2019-05-12T03:28:38.250Z,95.80
2019-05-12T03:31:09.349Z,96.50
2019-05-12T03:33:43.153Z,96.70
2019-05-12T03:36:17.221Z,97.20
2019-05-12T03:38:44.697Z,97.20
2019-05-12T03:41:15.279Z,96.70
2019-05-12T03:43:45.571Z,97.00
2019-05-12T03:46:15.766Z,97.30
2019-05-12T03:48:48.602Z,97.20
2019-05-12T03:51:18.821Z,96.70
2019-05-12T03:53:49.021Z,95.30
2019-05-12T03:56:19.249Z,95.30
2019-05-12T03:58:49.494Z,95.30
2019-05-12T04:01:19.698Z,95.60
2019-05-12T04:03:49.931Z,95.20
2019-05-12T04:06:20.161Z,94.70
2019-05-12T04:08:50.398Z,94.70
2019-05-12T04:11:20.654Z,94.10
2019-05-12T04:13:50.957Z,93.40
2019-05-12T04:16:24.460Z,93.00
2019-05-12T04:18:55.139Z,92.70
2019-05-12T04:21:26.893Z,92.90
2019-05-12T04:23:57.075Z,92.50
2019-05-12T04:26:27.272Z,92.70
2019-05-12T04:28:57.488Z,92.50
2019-05-12T04:31:27.704Z,92.70
2019-05-12T04:33:57.911Z,92.60
2019-05-12T04:36:28.095Z,93.00
2019-05-12T04:38:58.326Z,93.00
2019-05-12T04:41:28.507Z,92.70
2019-05-12T04:43:58.739Z,92.30
2019-05-12T04:46:28.925Z,92.40
2019-05-12T04:48:59.172Z,91.80
2019-05-12T04:51:29.345Z,91.70
2019-05-12T04:53:59.588Z,92.00
2019-05-12T04:56:30.003Z,91.40
2019-05-12T04:59:00.268Z,91.50
2019-05-12T05:01:30.563Z,91.30
2019-05-12T05:04:00.789Z,91.10
2019-05-12T05:06:34.001Z,91.60
2019-05-12T05:09:05.123Z,91.40
2019-05-12T05:11:35.712Z,91.30
2019-05-12T05:14:06.664Z,91.40
2019-05-12T05:16:36.955Z,91.20
2019-05-12T05:19:07.358Z,91.00
2019-05-12T05:21:37.576Z,91.00
2019-05-12T05:24:07.778Z,90.00
2019-05-12T05:26:37.989Z,90.50
2019-05-12T05:29:09.389Z,91.20
2019-05-12T05:31:40.243Z,91.50
2019-05-12T05:34:10.508Z,91.60
2019-05-12T05:36:40.795Z,92.00
2019-05-12T05:39:13.681Z,92.80
2019-05-12T05:41:48.889Z,94.00
2019-05-12T05:44:18.263Z,94.80
2019-05-12T05:46:50.248Z,95.70
2019-05-12T05:49:20.607Z,96.30
2019-05-12T05:51:55.105Z,96.50
2019-05-12T05:54:31.148Z,96.50
2019-05-12T05:56:59.680Z,96.50
2019-05-12T05:59:31.461Z,96.60
2019-05-12T06:01:58.542Z,96.10
2019-05-12T06:04:28.781Z,96.00
2019-05-12T06:06:58.958Z,95.90
2019-05-12T06:09:29.198Z,95.30
2019-05-12T06:12:05.171Z,95.30
2019-05-12T06:14:34.060Z,95.30
2019-05-12T06:17:04.312Z,95.10
2019-05-12T06:19:34.719Z,95.00
2019-05-12T06:22:09.028Z,95.10
2019-05-12T06:24:36.933Z,94.60
2019-05-12T06:27:15.172Z,94.60
2019-05-12T06:29:39.113Z,94.50
2019-05-12T06:32:11.030Z,94.60
2019-05-12T06:34:43.454Z,94.70
2019-05-12T06:37:16.988Z,94.40
2019-05-12T06:39:45.378Z,94.40
2019-05-12T06:42:17.077Z,94.40
2019-05-12T06:44:48.972Z,94.50
2019-05-12T06:47:19.378Z,94.80
2019-05-12T06:49:56.453Z,95.30
2019-05-12T06:52:23.624Z,95.40
2019-05-12T06:54:56.559Z,96.00
2019-05-12T06:57:28.766Z,96.90
2019-05-12T06:59:57.728Z,97.50
2019-05-12T07:02:30.200Z,98.00
2019-05-12T07:05:00.033Z,98.50
2019-05-12T07:07:38.826Z,99.10
2019-05-12T07:10:11.599Z,99.70
2019-05-12T07:12:43.471Z,99.90
2019-05-12T07:15:07.137Z,99.90
2019-05-12T07:17:49.652Z,99.90
2019-05-12T07:20:17.207Z,99.90
2019-05-12T07:22:48.598Z,99.90
2019-05-12T07:25:24.518Z,99.90
2019-05-12T07:27:54.927Z,99.90
2019-05-12T07:30:31.856Z,99.90
2019-05-12T07:33:04.281Z,99.90
2019-05-12T07:35:34.732Z,99.90
2019-05-12T07:38:05.758Z,99.90
2019-05-12T07:40:37.931Z,99.90
2019-05-12T07:43:18.558Z,99.90
2019-05-12T07:45:46.056Z,99.90
2019-05-12T07:48:16.258Z,99.90
2019-05-12T07:50:50.211Z,99.90
2019-05-12T07:53:18.494Z,99.90
2019-05-12T07:55:49.550Z,99.90
2019-05-12T07:58:20.006Z,98.70
2019-05-12T08:00:53.863Z,99.10
2019-05-12T08:03:24.311Z,99.80
2019-05-12T08:05:57.549Z,99.50
2019-05-12T08:08:25.944Z,99.30
2019-05-12T08:10:56.251Z,99.90
2019-05-12T08:13:31.181Z,99.30
2019-05-12T08:15:58.378Z,99.30
2019-05-12T08:18:30.507Z,98.60
2019-05-12T08:21:00.529Z,97.30
2019-05-12T08:23:30.758Z,96.50
2019-05-12T08:26:03.684Z,95.30
2019-05-12T08:28:35.771Z,96.40
2019-05-12T08:31:05.026Z,95.40
2019-05-12T08:33:35.791Z,95.80
2019-05-12T08:36:11.414Z,95.80
2019-05-12T08:38:38.067Z,96.20
2019-05-12T08:41:08.314Z,96.40
2019-05-12T08:43:40.517Z,96.50
2019-05-12T08:46:12.853Z,96.40
2019-05-12T08:48:44.630Z,96.20
2019-05-12T08:51:19.393Z,96.30
2019-05-12T08:53:46.218Z,95.70
2019-05-12T08:56:19.426Z,96.20
2019-05-12T08:58:51.396Z,94.10
2019-05-12T09:01:25.772Z,95.10
2019-05-12T09:03:53.354Z,93.60
2019-05-12T09:06:24.168Z,92.20
2019-05-12T09:08:54.536Z,92.20
2019-05-12T09:11:24.753Z,92.10
2019-05-12T09:14:00.643Z,90.40
2019-05-12T09:16:26.891Z,89.50
2019-05-12T09:18:57.178Z,87.00
2019-05-12T09:21:31.579Z,86.80
2019-05-12T09:23:59.316Z,88.30
2019-05-12T09:26:29.515Z,87.90
2019-05-12T09:28:59.736Z,85.60
2019-05-12T09:31:30.517Z,83.60
2019-05-12T09:34:05.992Z,81.90
2019-05-12T09:36:33.792Z,82.40
2019-05-12T09:39:06.897Z,80.00
2019-05-12T09:41:42.762Z,80.50
2019-05-12T09:44:09.816Z,79.50
2019-05-12T09:46:40.012Z,77.50
2019-05-12T09:49:10.255Z,77.90
2019-05-12T09:51:45.690Z,78.20
2019-05-12T09:54:14.083Z,76.10
2019-05-12T09:56:44.418Z,72.90
2019-05-12T09:59:22.631Z,72.10
2019-05-12T10:01:48.222Z,72.70
2019-05-12T10:04:19.693Z,72.00
2019-05-12T10:06:49.979Z,71.50
2019-05-12T10:09:20.218Z,72.00
2019-05-12T10:11:53.870Z,71.70
2019-05-12T10:14:23.545Z,69.80
2019-05-12T10:16:53.909Z,70.30
2019-05-12T10:19:24.133Z,70.20
2019-05-12T10:21:58.206Z,70.80
2019-05-12T10:24:26.303Z,70.50
2019-05-12T10:26:57.319Z,68.90
2019-05-12T10:29:30.625Z,69.60
2019-05-12T10:32:03.975Z,69.30
2019-05-12T10:34:38.169Z,66.50
2019-05-12T10:37:05.805Z,66.20
2019-05-12T10:39:36.025Z,65.50
2019-05-12T10:42:06.235Z,63.50
2019-05-12T10:44:40.656Z,63.50
2019-05-12T10:47:08.389Z,63.30
2019-05-12T10:49:38.755Z,62.10
2019-05-12T10:52:09.809Z,61.80
2019-05-12T10:54:40.052Z,61.40
2019-05-12T10:57:10.272Z,60.00
2019-05-12T10:59:46.774Z,59.80
2019-05-12T11:02:13.940Z,60.50
2019-05-12T11:04:44.253Z,60.40
2019-05-12T11:07:14.463Z,60.10
2019-05-12T11:09:44.709Z,59.80
2019-05-12T11:12:19.185Z,60.00
2019-05-12T11:14:49.025Z,59.70
2019-05-12T11:17:19.345Z,59.20
2019-05-12T11:19:51.513Z,58.30
2019-05-12T11:22:21.519Z,58.10
2019-05-12T11:24:53.518Z,58.80
2019-05-12T11:27:24.024Z,57.30
2019-05-12T11:29:54.450Z,56.20
2019-05-12T11:32:28.963Z,55.20
2019-05-12T11:34:56.770Z,55.60
2019-05-12T11:37:29.031Z,55.90
2019-05-12T11:39:58.923Z,55.50
2019-05-12T11:42:29.214Z,53.60
2019-05-12T11:44:59.431Z,53.80
2019-05-12T11:47:29.681Z,52.50
2019-05-12T11:50:05.064Z,52.60
2019-05-12T11:52:33.403Z,49.90
2019-05-12T11:55:07.615Z,47.30
2019-05-12T11:57:37.832Z,46.60
2019-05-12T12:00:10.142Z,47.60
2019-05-12T12:02:40.344Z,46.60
2019-05-12T12:05:10.894Z,46.80
2019-05-12T12:07:50.614Z,43.90
2019-05-12T12:10:14.281Z,41.20
2019-05-12T12:12:48.965Z,39.50
2019-05-12T12:15:23.778Z,37.80
2019-05-12T12:17:49.359Z,38.90
2019-05-12T12:20:22.471Z,40.60
2019-05-12T12:22:54.120Z,41.30
2019-05-12T12:25:25.541Z,41.20
2019-05-12T12:27:55.843Z,40.40
2019-05-12T12:30:26.086Z,38.60
2019-05-12T12:33:00.298Z,40.00
2019-05-12T12:35:28.254Z,39.80
2019-05-12T12:37:58.484Z,39.90
2019-05-12T12:40:30.785Z,40.70
2019-05-12T12:43:03.411Z,42.60
2019-05-12T12:45:46.880Z,43.00
2019-05-12T12:48:19.312Z,42.20
2019-05-12T12:50:49.158Z,42.40
2019-05-12T12:53:19.462Z,41.80
2019-05-12T12:55:49.680Z,41.00
2019-05-12T12:58:21.234Z,40.90
2019-05-12T13:00:56.347Z,40.50
2019-05-12T13:03:27.705Z,40.60
2019-05-12T13:05:55.705Z,41.00
2019-05-12T13:08:25.925Z,40.00
2019-05-12T13:10:56.156Z,40.10
2019-05-12T13:13:26.371Z,39.60
2019-05-12T13:15:56.596Z,37.90
2019-05-12T13:18:33.071Z,37.70
2019-05-12T13:20:58.765Z,37.70
2019-05-12T13:23:38.047Z,38.00
2019-05-12T13:26:00.963Z,38.20
2019-05-12T13:28:31.167Z,37.20
2019-05-12T13:31:11.053Z,37.20
2019-05-12T13:33:33.856Z,37.10
2019-05-12T13:36:04.521Z,35.70
2019-05-12T13:38:36.412Z,35.00
2019-05-12T13:41:09.503Z,35.20
2019-05-12T13:43:38.859Z,34.90
2019-05-12T13:46:09.971Z,34.50
2019-05-12T13:48:40.175Z,34.30
2019-05-12T13:51:15.101Z,35.00
2019-05-12T13:53:46.506Z,36.30
2019-05-12T13:56:19.142Z,36.80
2019-05-12T13:58:46.314Z,37.50
2019-05-12T14:01:20.514Z,36.30
2019-05-12T14:03:50.636Z,34.80
2019-05-12T14:06:23.053Z,35.60
2019-05-12T14:08:53.810Z,35.90
2019-05-12T14:11:25.853Z,35.70
2019-05-12T14:13:56.062Z,35.70
2019-05-12T14:16:26.485Z,35.80
2019-05-12T14:19:00.278Z,35.70
2019-05-12T14:21:33.027Z,35.00
2019-05-12T14:24:00.552Z,34.20
2019-05-12T14:26:30.821Z,33.50
2019-05-12T14:29:01.043Z,32.70
2019-05-12T14:31:36.376Z,32.10
2019-05-12T14:34:04.297Z,32.70
2019-05-12T14:36:34.712Z,32.60
2019-05-12T14:39:10.196Z,32.90
2019-05-12T14:41:52.861Z,33.20
2019-05-12T14:44:15.699Z,33.20
2019-05-12T14:46:50.495Z,32.60
2019-05-12T14:49:20.277Z,32.70
2019-05-12T14:51:49.823Z,32.20
2019-05-12T14:54:20.023Z,31.50
2019-05-12T14:56:55.420Z,31.40
2019-05-12T14:59:24.146Z,31.80
2019-05-12T15:01:59.184Z,30.00
2019-05-12T15:04:29.853Z,28.40
2019-05-12T15:06:59.760Z,25.00
2019-05-12T15:09:29.840Z,24.40
2019-05-12T15:12:00.082Z,24.00
2019-05-12T15:14:37.793Z,24.70
2019-05-12T15:17:03.674Z,24.50
2019-05-12T15:19:34.106Z,25.10
2019-05-12T15:22:07.602Z,27.10
2019-05-12T15:24:36.670Z,28.40
2019-05-12T15:27:06.929Z,29.80
2019-05-12T15:29:37.154Z,29.10
2019-05-12T15:32:07.454Z,27.60
2019-05-12T15:34:37.682Z,28.40
2019-05-12T15:37:07.942Z,29.30
2019-05-12T15:39:38.143Z,28.40
2019-05-12T15:42:08.483Z,28.10
2019-05-12T15:44:38.673Z,28.00
2019-05-12T15:47:10.027Z,28.90
2019-05-12T15:49:40.245Z,29.60
2019-05-12T15:52:10.485Z,30.30
2019-05-12T15:54:45.826Z,31.10
2019-05-12T15:57:13.599Z,31.80
2019-05-12T15:59:43.996Z,32.80
2019-05-12T16:02:16.832Z,32.40
2019-05-12T16:04:48.485Z,32.90
2019-05-12T16:07:18.168Z,32.90
2019-05-12T16:09:48.452Z,32.90
2019-05-12T16:12:23.411Z,33.20
2019-05-12T16:14:50.639Z,33.10
2019-05-12T16:17:25.444Z,33.80
2019-05-12T16:19:54.135Z,34.20
2019-05-12T16:22:24.412Z,34.60
2019-05-12T16:24:54.621Z,34.90
2019-05-12T16:27:33.134Z,34.70
2019-05-12T16:29:56.892Z,35.00
2019-05-12T16:32:32.509Z,34.80
2019-05-12T16:34:59.089Z,34.90
2019-05-12T16:37:31.334Z,34.80
2019-05-12T16:40:01.256Z,34.20
2019-05-12T16:42:33.485Z,34.80
2019-05-12T16:45:08.220Z,34.30
2019-05-12T16:47:36.248Z,34.90
2019-05-12T16:50:15.279Z,35.10
2019-05-12T16:52:42.812Z,34.50
2019-05-12T16:55:13.268Z,34.80
2019-05-12T16:57:51.635Z,35.00
2019-05-12T17:00:16.246Z,35.60
2019-05-12T17:02:53.779Z,35.80
2019-05-12T17:05:20.545Z,35.90
2019-05-12T17:07:55.789Z,35.60
2019-05-12T17:10:24.390Z,35.70
2019-05-12T17:12:54.955Z,36.00
2019-05-12T17:15:25.215Z,36.20
2019-05-12T17:18:01.152Z,36.40
2019-05-12T17:20:27.435Z,36.80
2019-05-12T17:23:00.127Z,36.80
2019-05-12T17:25:30.268Z,36.70
2019-05-12T17:28:03.970Z,36.00
2019-05-12T17:30:34.407Z,35.90
2019-05-12T17:33:05.355Z,36.10
2019-05-12T17:35:35.776Z,36.30
2019-05-12T17:38:06.101Z,36.80
2019-05-12T17:40:36.407Z,37.10
2019-05-12T17:43:11.547Z,36.90
2019-05-12T17:45:38.588Z,37.30
2019-05-12T17:48:08.832Z,37.30
2019-05-12T17:50:40.667Z,37.70
2019-05-12T17:53:13.631Z,37.60
2019-05-12T17:55:51.281Z,37.80
2019-05-12T17:58:16.740Z,37.90
2019-05-12T18:00:51.682Z,38.30
2019-05-12T18:03:22.053Z,38.20
2019-05-12T18:05:52.976Z,38.30
2019-05-12T18:08:32.016Z,38.20
2019-05-12T18:10:55.001Z,37.80
2019-05-12T18:13:28.078Z,38.00
2019-05-12T18:15:57.209Z,38.20
2019-05-12T18:18:32.777Z,38.40
2019-05-12T18:20:59.415Z,38.50
2019-05-12T18:23:30.384Z,38.80
2019-05-12T18:26:03.137Z,38.80
2019-05-12T18:28:33.484Z,38.90
2019-05-12T18:31:04.438Z,39.10
2019-05-12T18:33:42.559Z,39.10
2019-05-12T18:36:06.982Z,39.30
2019-05-12T18:38:37.311Z,39.40
2019-05-12T18:41:07.912Z,39.50
2019-05-12T18:43:38.241Z,39.60
2019-05-12T18:46:09.370Z,39.70
2019-05-12T18:48:39.793Z,40.00
2019-05-12T18:51:13.825Z,40.20
2019-05-12T18:53:43.850Z,40.10
2019-05-12T18:56:19.971Z,40.10
2019-05-12T18:58:46.121Z,40.00
2019-05-12T19:01:16.371Z,40.10
2019-05-12T19:03:50.795Z,41.30
2019-05-12T19:06:18.701Z,40.40
2019-05-12T19:08:48.969Z,40.70
2019-05-12T19:11:41.876Z,40.80
2019-05-12T19:14:04.433Z,40.90
2019-05-12T19:16:34.838Z,40.90
2019-05-12T19:19:09.750Z,40.80
2019-05-12T19:21:37.093Z,40.90
2019-05-12T19:24:08.736Z,41.00
2019-05-12T19:26:40.474Z,41.20
2019-05-12T19:29:10.880Z,42.10
2019-05-12T19:31:45.171Z,41.40
2019-05-12T19:34:19.833Z,41.30
2019-05-12T19:36:49.477Z,42.30
2019-05-12T19:39:17.196Z,41.80
2019-05-12T19:41:47.783Z,42.50
2019-05-12T19:44:20.179Z,42.10
2019-05-12T19:46:49.916Z,41.70
2019-05-12T19:49:25.731Z,41.70
2019-05-12T19:51:54.266Z,41.90
2019-05-12T19:54:25.566Z,42.10
2019-05-12T19:56:55.933Z,42.20
2019-05-12T19:59:26.205Z,42.20
2019-05-12T20:01:56.450Z,42.30
2019-05-12T20:04:33.524Z,42.30
2019-05-12T20:06:58.642Z,42.50
2019-05-12T20:09:28.882Z,42.70
2019-05-12T20:12:01.321Z,43.00
2019-05-12T20:14:31.051Z,43.20
2019-05-12T20:17:01.274Z,44.00
2019-05-12T20:19:33.888Z,43.60
2019-05-12T20:22:03.635Z,43.60
2019-05-12T20:24:33.970Z,43.50
2019-05-12T20:27:04.205Z,43.60
2019-05-12T20:29:35.276Z,43.70
2019-05-12T20:32:05.751Z,43.70
2019-05-12T20:34:48.470Z,43.90
2019-05-12T20:37:13.329Z,44.00
2019-05-12T20:39:39.862Z,44.10
2019-05-12T20:42:10.325Z,44.20
2019-05-12T20:44:40.578Z,44.10
2019-05-12T20:47:10.764Z,44.20
2019-05-12T20:49:42.895Z,44.10
2019-05-12T20:52:14.357Z,44.20
2019-05-12T20:54:49.195Z,44.30
2019-05-12T20:57:16.882Z,44.30
2019-05-12T20:59:47.111Z,44.50
2019-05-12T21:02:17.332Z,44.70
2019-05-12T21:05:00.200Z,44.80
2019-05-12T21:07:22.148Z,44.80
2019-05-12T21:09:51.462Z,44.90
2019-05-12T21:12:24.055Z,45.20
2019-05-12T21:15:00.691Z,45.20
2019-05-12T21:17:39.595Z,45.40
2019-05-12T21:19:59.486Z,45.50
2019-05-12T21:22:29.390Z,45.70
2019-05-12T21:24:59.619Z,45.80
2019-05-12T21:27:29.824Z,45.80
2019-05-12T21:30:00.550Z,45.90
2019-05-12T21:32:33.896Z,46.00
2019-05-12T21:35:18.092Z,46.20
2019-05-12T21:37:45.643Z,46.50
2019-05-12T21:40:10.592Z,46.90
2019-05-12T21:42:40.810Z,47.20
2019-05-12T21:45:14.318Z,47.60
2019-05-12T21:47:44.505Z,48.50
2019-05-12T21:50:15.331Z,48.20
2019-05-12T21:52:45.564Z,48.40
2019-05-12T21:55:21.638Z,48.70
2019-05-12T21:57:53.806Z,48.90
2019-05-12T22:00:39.679Z,48.90
2019-05-12T22:03:15.276Z,49.00
2019-05-12T22:05:52.216Z,49.30
2019-05-12T22:08:25.437Z,49.30
2019-05-12T22:11:09.582Z,49.60
2019-05-12T22:13:46.836Z,49.80
2019-05-12T22:16:14.151Z,49.80
2019-05-12T22:18:47.704Z,50.10
2019-05-12T22:21:16.453Z,50.20
2019-05-12T22:23:51.222Z,50.40
2019-05-12T22:26:18.727Z,50.40
2019-05-12T22:28:50.974Z,50.40
2019-05-12T22:31:20.835Z,50.50
2019-05-12T22:33:53.455Z,50.70
2019-05-12T22:36:26.798Z,50.80
2019-05-12T22:39:00.917Z,50.90
2019-05-12T22:41:30.307Z,51.20
2019-05-12T22:43:58.831Z,51.30
2019-05-12T22:46:31.235Z,51.60
2019-05-12T22:49:00.965Z,51.80
2019-05-12T22:51:31.226Z,52.00
2019-05-12T22:54:07.086Z,52.00
2019-05-12T22:56:34.242Z,52.20
2019-05-12T22:59:04.730Z,52.20
2019-05-12T23:01:41.616Z,52.40
2019-05-12T23:04:07.209Z,52.70
2019-05-12T23:06:42.186Z,52.80
2019-05-12T23:09:10.563Z,53.10
2019-05-12T23:11:40.797Z,53.20
2019-05-12T23:14:20.728Z,53.40
2019-05-12T23:16:47.355Z,54.10
2019-05-12T23:19:17.569Z,53.80
2019-05-12T23:21:49.452Z,53.90
2019-05-12T23:24:20.019Z,54.70
2019-05-12T23:26:50.259Z,54.80
2019-05-12T23:29:25.706Z,55.40
2019-05-12T23:31:53.712Z,54.90
2019-05-12T23:34:24.061Z,55.10
2019-05-12T23:36:56.931Z,55.30
2019-05-12T23:39:26.245Z,55.30
2019-05-12T23:41:56.491Z,54.90
2019-05-12T23:44:26.703Z,55.10
2019-05-12T23:46:57.063Z,55.00
2019-05-12T23:49:27.292Z,55.20
2019-05-12T23:51:57.535Z,55.40
2019-05-12T23:54:27.856Z,55.80
2019-05-12T23:56:58.123Z,56.10
2019-05-12T23:59:28.334Z,56.50
